createdAt,value
2023-01-01T00:01:21.931Z,86.51
2023-01-01T00:03:50.348Z,86.09
2023-01-01T00:06:17.094Z,86.33
2023-01-01T00:08:43.760Z,86.51
2023-01-01T00:11:11.159Z,86.69
2023-01-01T00:13:39.046Z,86.70
2023-01-01T00:16:06.893Z,86.94
2023-01-01T00:18:34.265Z,87.72
2023-01-01T00:21:02.870Z,87.99
2023-01-01T00:23:29.582Z,88.18
2023-01-01T00:25:56.247Z,88.09
2023-01-01T00:28:22.923Z,88.32
2023-01-01T00:30:49.696Z,88.47
2023-01-01T00:33:16.356Z,88.93
2023-01-01T00:35:43.063Z,89.02
2023-01-01T00:38:09.736Z,89.25
2023-01-01T00:40:36.389Z,88.71
2023-01-01T00:43:03.228Z,89.19
2023-01-01T00:45:29.877Z,89.38
2023-01-01T00:47:56.553Z,89.55
2023-01-01T00:50:23.331Z,89.25
2023-01-01T00:52:50.280Z,89.51
2023-01-01T00:55:17.427Z,89.70
2023-01-01T00:57:44.181Z,89.85
2023-01-01T01:00:11.748Z,90.11
2023-01-01T01:02:38.800Z,89.67
2023-01-01T01:05:06.234Z,88.16
2023-01-01T01:07:36.866Z,87.14
2023-01-01T01:10:03.880Z,86.53
2023-01-01T01:12:30.574Z,86.10
2023-01-01T01:14:57.289Z,86.23
2023-01-01T01:17:23.981Z,86.64
2023-01-01T01:19:50.847Z,85.90
2023-01-01T01:22:20.514Z,85.24
2023-01-01T01:24:51.086Z,85.30
2023-01-01T01:27:17.777Z,85.37
2023-01-01T01:29:44.491Z,84.55
2023-01-01T01:32:11.893Z,84.42
2023-01-01T01:34:38.583Z,83.78
2023-01-01T01:37:05.284Z,82.87
2023-01-01T01:39:32.082Z,83.02
2023-01-01T01:41:58.741Z,83.00
2023-01-01T01:44:35.367Z,82.97
2023-01-01T01:47:03.276Z,83.09
2023-01-01T01:49:32.366Z,83.22
2023-01-01T01:52:00.619Z,83.50
2023-01-01T01:54:28.181Z,83.46
2023-01-01T01:56:57.615Z,83.05
2023-01-01T01:59:27.229Z,83.24
2023-01-01T02:01:54.171Z,83.02
2023-01-01T02:04:21.287Z,82.20
2023-01-01T02:07:31.159Z,82.50
2023-01-01T02:09:58.574Z,82.29
2023-01-01T02:12:26.551Z,82.51
2023-01-01T02:14:53.307Z,82.15
2023-01-01T02:17:29.412Z,82.83
2023-01-01T02:20:01.707Z,82.29
2023-01-01T02:22:38.989Z,82.19
2023-01-01T02:25:15.406Z,82.08
2023-01-01T02:27:50.707Z,82.65
2023-01-01T02:30:18.235Z,82.77
2023-01-01T02:32:47.662Z,82.47
2023-01-01T02:35:25.520Z,82.09
2023-01-01T02:37:55.362Z,81.92
2023-01-01T02:40:23.465Z,82.51
2023-01-01T02:42:51.354Z,82.17
2023-01-01T02:45:17.988Z,82.06
2023-01-01T02:47:44.757Z,82.03
2023-01-01T02:50:14.644Z,81.50
2023-01-01T02:52:44.523Z,80.51
2023-01-01T02:55:20.558Z,79.72
2023-01-01T02:57:52.064Z,78.91
2023-01-01T03:00:19.929Z,79.04
2023-01-01T03:02:56.900Z,79.15
2023-01-01T03:05:24.809Z,79.16
2023-01-01T03:07:51.717Z,78.65
2023-01-01T03:10:21.422Z,78.20
2023-01-01T03:12:54.875Z,78.65
2023-01-01T03:15:22.775Z,78.35
2023-01-01T03:17:59.453Z,78.20
2023-01-01T03:20:28.542Z,78.40
2023-01-01T03:22:56.376Z,78.18
2023-01-01T03:25:25.443Z,77.89
2023-01-01T03:27:56.826Z,77.36
2023-01-01T03:30:23.841Z,78.08
2023-01-01T03:33:00.855Z,78.69
2023-01-01T03:35:30.844Z,78.57
2023-01-01T03:37:59.804Z,77.42
2023-01-01T03:40:27.762Z,77.84
2023-01-01T03:42:57.043Z,77.62
2023-01-01T03:45:27.528Z,77.60
2023-01-01T03:47:55.033Z,78.32
2023-01-01T03:50:25.880Z,78.53
2023-01-01T03:53:02.634Z,78.08
2023-01-01T03:55:30.475Z,78.40
2023-01-01T03:58:02.043Z,78.60
2023-01-01T04:00:33.529Z,78.70
2023-01-01T04:03:01.449Z,78.75
2023-01-01T04:05:29.686Z,79.10
2023-01-01T04:07:56.788Z,79.11
2023-01-01T04:10:24.874Z,78.99
2023-01-01T04:12:53.436Z,79.10
2023-01-01T04:15:21.884Z,78.65
2023-01-01T04:17:48.562Z,79.31
2023-01-01T04:20:15.733Z,79.81
2023-01-01T04:22:42.582Z,79.35
2023-01-01T04:25:10.305Z,79.05
2023-01-01T04:27:37.499Z,79.30
2023-01-01T04:30:06.646Z,80.00
2023-01-01T04:32:33.329Z,79.96
2023-01-01T04:35:00.412Z,80.03
2023-01-01T04:37:27.398Z,80.19
2023-01-01T04:39:54.057Z,79.88
2023-01-01T04:42:20.803Z,79.47
2023-01-01T04:44:47.495Z,79.73
2023-01-01T04:47:14.240Z,79.72
2023-01-01T04:49:40.859Z,80.09
2023-01-01T04:52:07.620Z,79.47
2023-01-01T04:54:34.288Z,79.51
2023-01-01T04:57:01.092Z,79.21
2023-01-01T04:59:29.169Z,79.71
2023-01-01T05:01:55.935Z,80.46
2023-01-01T05:04:22.877Z,80.23
2023-01-01T05:06:49.528Z,79.97
2023-01-01T05:09:16.489Z,80.38
2023-01-01T05:11:43.124Z,80.30
2023-01-01T05:14:09.836Z,80.94
2023-01-01T05:16:38.069Z,80.89
2023-01-01T05:19:05.203Z,81.56
2023-01-01T05:21:33.259Z,81.20
2023-01-01T05:24:01.188Z,81.04
2023-01-01T05:26:29.297Z,81.34
2023-01-01T05:28:56.654Z,81.59
2023-01-01T05:31:25.171Z,81.92
2023-01-01T05:33:52.860Z,81.72
2023-01-01T05:36:21.252Z,82.19
2023-01-01T05:38:48.628Z,82.35
2023-01-01T05:41:16.151Z,82.06
2023-01-01T05:43:43.369Z,81.82
2023-01-01T05:46:15.241Z,82.05
2023-01-01T05:48:42.127Z,82.84
2023-01-01T05:51:10.390Z,82.20
2023-01-01T05:53:37.186Z,82.31
2023-01-01T05:56:04.491Z,82.13
2023-01-01T05:58:32.062Z,81.97
2023-01-01T06:01:05.650Z,81.78
2023-01-01T06:03:32.299Z,81.30
2023-01-01T06:06:02.899Z,81.31
2023-01-01T06:08:29.604Z,80.97
2023-01-01T06:11:05.555Z,81.26
2023-01-01T06:13:32.222Z,80.57
2023-01-01T06:15:59.921Z,80.96
2023-01-01T06:18:29.056Z,81.28
2023-01-01T06:20:55.705Z,80.97
2023-01-01T06:23:22.373Z,80.42
2023-01-01T06:25:49.046Z,80.37
2023-01-01T06:28:15.700Z,80.42
2023-01-01T06:30:43.674Z,80.20
2023-01-01T06:33:10.330Z,80.77
2023-01-01T06:35:36.995Z,80.04
2023-01-01T06:38:03.621Z,80.97
2023-01-01T06:40:30.248Z,80.65
2023-01-01T06:42:56.934Z,80.42
2023-01-01T06:45:23.650Z,80.60
2023-01-01T06:47:50.249Z,80.89
2023-01-01T06:50:16.923Z,81.07
2023-01-01T06:52:43.617Z,81.55
2023-01-01T06:55:10.338Z,81.71
2023-01-01T06:57:36.982Z,81.94
2023-01-01T07:00:03.855Z,82.47
2023-01-01T07:02:30.660Z,83.63
2023-01-01T07:04:57.437Z,83.62
2023-01-01T07:07:24.276Z,83.88
2023-01-01T07:09:50.945Z,83.72
2023-01-01T07:12:17.628Z,84.14
2023-01-01T07:14:44.295Z,84.53
2023-01-01T07:17:10.912Z,84.86
2023-01-01T07:19:37.678Z,84.92
2023-01-01T07:22:04.366Z,85.36
2023-01-01T07:24:31.009Z,85.27
2023-01-01T07:26:57.707Z,85.35
2023-01-01T07:29:24.320Z,85.43
2023-01-01T07:31:51.091Z,86.63
2023-01-01T07:34:19.949Z,86.45
2023-01-01T07:36:46.661Z,85.99
2023-01-01T07:39:13.339Z,85.88
2023-01-01T07:41:39.958Z,85.55
2023-01-01T07:44:06.790Z,85.51
2023-01-01T07:46:35.129Z,85.42
2023-01-01T07:49:02.354Z,85.00
2023-01-01T07:51:29.045Z,84.59
2023-01-01T07:53:58.236Z,84.25
2023-01-01T07:56:29.098Z,84.00
2023-01-01T07:58:55.726Z,83.90
2023-01-01T08:01:22.435Z,84.29
2023-01-01T08:03:53.002Z,84.12
2023-01-01T08:06:19.683Z,83.47
2023-01-01T08:08:46.366Z,83.13
2023-01-01T08:11:13.095Z,83.06
2023-01-01T08:13:39.735Z,83.15
2023-01-01T08:16:06.868Z,83.52
2023-01-01T08:18:33.600Z,83.81
2023-01-01T08:21:00.307Z,84.05
2023-01-01T08:23:26.979Z,83.92
2023-01-01T08:25:53.589Z,83.84
2023-01-01T08:28:20.303Z,84.02
2023-01-01T08:30:47.037Z,83.95
2023-01-01T08:33:13.665Z,84.59
2023-01-01T08:35:41.874Z,84.47
2023-01-01T08:38:11.078Z,83.69
2023-01-01T08:40:37.908Z,83.06
2023-01-01T08:43:04.709Z,82.96
2023-01-01T08:45:31.366Z,82.54
2023-01-01T08:47:58.083Z,83.09
2023-01-01T08:50:24.773Z,83.23
2023-01-01T08:52:51.427Z,82.93
2023-01-01T08:55:18.194Z,82.86
2023-01-01T08:57:44.825Z,82.73
2023-01-01T09:00:13.885Z,82.80
2023-01-01T09:02:40.685Z,83.03
2023-01-01T09:05:07.974Z,82.78
2023-01-01T09:07:34.620Z,83.19
2023-01-01T09:10:01.286Z,82.66
2023-01-01T09:12:27.967Z,82.37
2023-01-01T09:14:54.585Z,82.46
2023-01-01T09:17:21.267Z,82.76
2023-01-01T09:19:48.017Z,82.83
2023-01-01T09:22:14.684Z,83.09
2023-01-01T09:24:41.267Z,82.70
2023-01-01T09:27:07.921Z,82.14
2023-01-01T09:29:34.673Z,82.09
2023-01-01T09:32:01.494Z,82.18
2023-01-01T09:34:28.398Z,81.95
2023-01-01T09:36:55.261Z,82.05
2023-01-01T09:39:22.196Z,82.25
2023-01-01T09:41:52.415Z,82.29
2023-01-01T09:44:20.585Z,82.31
2023-01-01T09:46:47.946Z,83.04
2023-01-01T09:49:18.520Z,82.31
2023-01-01T09:51:52.441Z,82.10
2023-01-01T09:54:33.712Z,81.48
2023-01-01T09:57:02.177Z,82.30
2023-01-01T09:59:29.055Z,82.57
2023-01-01T10:02:01.534Z,81.13
2023-01-01T10:04:29.741Z,80.58
2023-01-01T10:07:07.142Z,80.44
2023-01-01T10:09:42.687Z,80.27
2023-01-01T10:12:21.584Z,80.28
2023-01-01T10:14:56.480Z,80.27
2023-01-01T10:17:32.091Z,79.71
2023-01-01T10:20:01.399Z,79.44
2023-01-01T10:22:32.919Z,79.69
2023-01-01T10:25:03.454Z,79.66
2023-01-01T10:27:34.486Z,79.58
2023-01-01T10:30:04.669Z,81.23
2023-01-01T10:32:34.599Z,80.10
2023-01-01T10:35:02.967Z,79.93
2023-01-01T10:37:33.871Z,80.06
2023-01-01T10:40:03.556Z,79.74
2023-01-01T10:42:30.320Z,80.43
2023-01-01T10:44:58.015Z,80.36
2023-01-01T10:47:29.232Z,80.59
2023-01-01T10:49:56.880Z,80.22
2023-01-01T10:52:26.511Z,80.54
2023-01-01T10:54:53.504Z,79.79
2023-01-01T10:57:30.321Z,80.40
2023-01-01T11:00:09.860Z,79.76
2023-01-01T11:02:37.630Z,79.73
2023-01-01T11:05:19.245Z,79.41
2023-01-01T11:07:48.280Z,79.45
2023-01-01T11:10:25.817Z,79.29
2023-01-01T11:13:10.088Z,79.21
2023-01-01T11:15:39.444Z,79.24
2023-01-01T11:18:07.466Z,78.84
2023-01-01T11:20:34.701Z,78.96
2023-01-01T11:23:17.210Z,78.87
2023-01-01T11:25:57.075Z,79.03
2023-01-01T11:28:24.911Z,78.66
2023-01-01T11:31:00.344Z,78.41
2023-01-01T11:33:27.953Z,78.35
2023-01-01T11:35:55.773Z,78.13
2023-01-01T11:38:29.485Z,78.23
2023-01-01T11:41:01.714Z,78.88
2023-01-01T11:43:29.361Z,79.12
2023-01-01T11:45:58.422Z,78.77
2023-01-01T11:48:28.411Z,77.92
2023-01-01T11:50:55.599Z,77.98
2023-01-01T11:53:22.681Z,77.81
2023-01-01T11:55:53.062Z,77.57
2023-01-01T11:58:23.690Z,77.84
2023-01-01T12:00:52.832Z,77.63
2023-01-01T12:03:32.901Z,77.22
2023-01-01T12:06:12.390Z,77.67
2023-01-01T12:08:42.894Z,78.17
2023-01-01T12:11:10.027Z,77.77
2023-01-01T12:13:44.672Z,77.87
2023-01-01T12:16:15.957Z,79.15
2023-01-01T12:18:47.962Z,77.95
2023-01-01T12:21:18.891Z,77.88
2023-01-01T12:23:45.868Z,78.07
2023-01-01T12:26:22.753Z,78.26
2023-01-01T12:28:59.204Z,78.24
2023-01-01T12:31:29.448Z,78.21
2023-01-01T12:33:57.485Z,77.75
2023-01-01T12:36:34.589Z,77.60
2023-01-01T12:39:06.840Z,78.03
2023-01-01T12:41:42.104Z,77.81
2023-01-01T12:44:20.908Z,77.51
2023-01-01T12:46:49.619Z,77.64
2023-01-01T12:49:23.789Z,77.75
2023-01-01T12:51:50.901Z,78.30
2023-01-01T12:54:28.045Z,78.51
2023-01-01T12:57:04.920Z,78.03
2023-01-01T12:59:36.606Z,78.36
2023-01-01T13:02:12.550Z,79.18
2023-01-01T13:04:40.616Z,78.54
2023-01-01T13:07:09.858Z,78.54
2023-01-01T13:09:39.783Z,78.56
2023-01-01T13:12:09.941Z,78.72
2023-01-01T13:14:39.457Z,79.05
2023-01-01T13:17:17.590Z,78.51
2023-01-01T13:19:44.591Z,78.50
2023-01-01T13:22:20.601Z,78.68
2023-01-01T13:24:56.740Z,78.73
2023-01-01T13:27:33.061Z,78.76
2023-01-01T13:29:59.944Z,79.11
2023-01-01T13:32:26.829Z,79.31
2023-01-01T13:35:03.646Z,78.92
2023-01-01T13:37:31.374Z,78.84
2023-01-01T13:39:58.429Z,79.11
2023-01-01T13:42:34.610Z,78.78
2023-01-01T13:45:01.632Z,79.25
2023-01-01T13:47:34.494Z,78.31
2023-01-01T13:50:12.465Z,78.36
2023-01-01T13:52:48.475Z,77.95
2023-01-01T13:55:24.661Z,78.41
2023-01-01T13:57:52.751Z,78.57
2023-01-01T14:00:20.370Z,79.16
2023-01-01T14:02:50.327Z,78.45
2023-01-01T14:05:22.652Z,77.90
2023-01-01T14:07:52.862Z,78.11
2023-01-01T14:10:21.258Z,78.40
2023-01-01T14:12:48.957Z,77.91
2023-01-01T14:15:16.763Z,78.30
2023-01-01T14:17:44.600Z,77.93
2023-01-01T14:20:15.442Z,77.64
2023-01-01T14:22:43.851Z,77.64
2023-01-01T14:25:15.142Z,78.01
2023-01-01T14:27:43.468Z,77.69
2023-01-01T14:30:19.629Z,77.93
2023-01-01T14:32:46.531Z,78.61
2023-01-01T14:35:17.382Z,78.72
2023-01-01T14:37:44.741Z,78.82
2023-01-01T14:40:26.995Z,79.23
2023-01-01T14:42:56.498Z,79.04
2023-01-01T14:45:23.660Z,80.18
2023-01-01T14:47:52.736Z,79.80
2023-01-01T14:50:24.418Z,79.73
2023-01-01T14:52:53.391Z,80.23
2023-01-01T14:55:20.744Z,79.40
2023-01-01T14:57:49.539Z,79.41
2023-01-01T15:00:25.703Z,80.17
2023-01-01T15:02:52.817Z,80.22
2023-01-01T15:05:23.103Z,80.04
2023-01-01T15:07:58.233Z,80.12
2023-01-01T15:10:27.470Z,80.35
2023-01-01T15:12:54.964Z,80.64
2023-01-01T15:15:31.450Z,81.44
2023-01-01T15:17:58.201Z,81.81
2023-01-01T15:20:25.063Z,82.25
2023-01-01T15:22:53.072Z,82.13
2023-01-01T15:25:20.216Z,82.04
2023-01-01T15:27:49.713Z,81.86
2023-01-01T15:30:25.084Z,82.46
2023-01-01T15:32:52.580Z,82.28
2023-01-01T15:35:24.887Z,82.39
2023-01-01T15:38:00.146Z,82.77
2023-01-01T15:40:29.541Z,82.82
2023-01-01T15:42:57.615Z,83.69
2023-01-01T15:45:25.828Z,84.49
2023-01-01T15:47:53.931Z,84.35
2023-01-01T15:50:25.240Z,84.22
2023-01-01T15:52:56.102Z,83.96
2023-01-01T15:55:26.171Z,84.10
2023-01-01T15:57:53.109Z,84.43
2023-01-01T16:00:22.020Z,84.72
2023-01-01T16:02:50.437Z,84.66
2023-01-01T16:05:19.471Z,84.65
2023-01-01T16:07:46.278Z,85.00
2023-01-01T16:10:15.627Z,85.37
2023-01-01T16:12:42.678Z,85.63
2023-01-01T16:15:15.049Z,85.92
2023-01-01T16:17:42.017Z,85.81
2023-01-01T16:20:14.186Z,85.31
2023-01-01T16:22:41.082Z,85.47
2023-01-01T16:25:17.717Z,85.39
2023-01-01T16:27:44.587Z,85.62
2023-01-01T16:30:12.113Z,85.27
2023-01-01T16:32:39.027Z,85.63
2023-01-01T16:35:11.689Z,84.39
2023-01-01T16:37:38.778Z,82.40
2023-01-01T16:40:06.823Z,80.82
2023-01-01T16:42:33.698Z,79.25
2023-01-01T16:45:00.575Z,77.76
2023-01-01T16:47:27.347Z,77.21
2023-01-01T16:49:54.214Z,75.57
2023-01-01T16:52:21.105Z,74.39
2023-01-01T16:54:48.457Z,74.51
2023-01-01T16:57:15.405Z,75.68
2023-01-01T16:59:42.195Z,78.87
2023-01-01T17:02:10.764Z,78.93
2023-01-01T17:04:37.504Z,79.01
2023-01-01T17:07:04.305Z,79.59
2023-01-01T17:09:31.226Z,80.65
2023-01-01T17:11:58.024Z,81.33
2023-01-01T17:14:24.868Z,81.32
2023-01-01T17:16:55.791Z,81.43
2023-01-01T17:19:22.759Z,81.83
2023-01-01T17:21:50.080Z,83.14
2023-01-01T17:24:18.862Z,83.94
2023-01-01T17:26:46.049Z,84.75
2023-01-01T17:29:12.904Z,85.40
2023-01-01T17:31:39.819Z,85.88
2023-01-01T17:34:06.912Z,86.07
2023-01-01T17:36:34.191Z,86.29
2023-01-01T17:39:01.069Z,86.56
2023-01-01T17:41:27.876Z,86.80
2023-01-01T17:43:54.674Z,86.62
2023-01-01T17:46:23.410Z,87.37
2023-01-01T17:48:50.665Z,87.65
2023-01-01T17:51:18.452Z,87.23
2023-01-01T17:56:14.863Z,85.10
2023-01-01T17:58:42.250Z,84.69
2023-01-01T18:01:18.784Z,84.75
2023-01-01T18:03:45.719Z,84.05
2023-01-01T18:06:12.666Z,84.09
2023-01-01T18:08:39.521Z,83.79
2023-01-01T18:11:06.506Z,83.93
2023-01-01T18:13:33.358Z,84.05
2023-01-01T18:16:01.426Z,84.11
2023-01-01T18:18:31.159Z,84.55
2023-01-01T18:21:01.895Z,84.91
2023-01-01T18:23:32.131Z,84.46
2023-01-01T18:26:01.154Z,85.82
2023-01-01T18:28:28.147Z,85.49
2023-01-01T18:30:54.967Z,85.23
2023-01-01T18:33:21.747Z,85.53
2023-01-01T18:35:48.769Z,85.90
2023-01-01T18:38:16.090Z,86.76
2023-01-01T18:40:48.012Z,87.40
2023-01-01T18:43:20.754Z,87.11
2023-01-01T18:45:47.403Z,87.45
2023-01-01T18:48:15.810Z,87.92
2023-01-01T18:50:42.432Z,89.05
2023-01-01T18:53:09.052Z,89.79
2023-01-01T18:55:36.827Z,90.21
2023-01-01T18:58:16.460Z,90.79
2023-01-01T19:00:43.169Z,91.04
2023-01-01T19:03:14.843Z,91.13
2023-01-01T19:05:41.563Z,91.70
2023-01-01T19:08:08.178Z,91.40
2023-01-01T19:10:41.114Z,91.51
2023-01-01T19:13:15.301Z,91.90
2023-01-01T19:15:44.442Z,91.81
2023-01-01T19:18:31.380Z,92.10
2023-01-01T19:20:57.999Z,92.53
2023-01-01T19:23:24.847Z,92.78
2023-01-01T19:25:52.164Z,92.86
2023-01-01T19:28:18.769Z,92.83
2023-01-01T19:30:45.845Z,92.91
2023-01-01T19:33:12.897Z,93.47
2023-01-01T19:35:39.720Z,93.93
2023-01-01T19:38:06.353Z,93.80
2023-01-01T19:40:33.069Z,93.26
2023-01-01T19:42:59.992Z,93.37
2023-01-01T19:45:26.675Z,93.94
2023-01-01T19:47:53.361Z,93.97
2023-01-01T19:50:21.419Z,94.60
2023-01-01T19:52:48.449Z,94.81
2023-01-01T19:55:15.112Z,95.13
2023-01-01T19:57:41.706Z,94.28
2023-01-01T20:00:08.649Z,94.88
2023-01-01T20:02:46.951Z,95.08
2023-01-01T20:05:14.452Z,95.19
2023-01-01T20:07:41.150Z,95.44
2023-01-01T20:10:08.069Z,95.85
2023-01-01T20:12:34.692Z,96.07
2023-01-01T20:15:01.292Z,96.32
2023-01-01T20:17:27.953Z,96.31
2023-01-01T20:19:54.989Z,96.21
2023-01-01T20:22:22.225Z,95.93
2023-01-01T20:24:48.839Z,95.77
2023-01-01T20:27:23.459Z,95.71
2023-01-01T20:29:50.976Z,95.94
2023-01-01T20:32:17.651Z,96.07
2023-01-01T20:34:44.644Z,96.34
2023-01-01T20:37:29.837Z,95.59
2023-01-01T20:39:56.575Z,95.07
2023-01-01T20:42:23.432Z,94.89
2023-01-01T20:44:50.096Z,95.13
2023-01-01T20:47:16.831Z,95.66
2023-01-01T20:49:43.586Z,95.38
2023-01-01T20:52:10.291Z,95.14
2023-01-01T20:54:37.060Z,95.22
2023-01-01T20:57:03.699Z,95.20
2023-01-01T20:59:36.838Z,95.56
2023-01-01T21:02:08.361Z,95.60
2023-01-01T21:04:39.208Z,95.88
2023-01-01T21:07:07.649Z,95.84
2023-01-01T21:09:34.317Z,95.40
2023-01-01T21:12:02.173Z,95.21
2023-01-01T21:14:29.246Z,95.61
2023-01-01T21:16:55.956Z,96.51
2023-01-01T21:19:26.720Z,96.75
2023-01-01T21:21:55.991Z,96.57
2023-01-01T21:24:25.092Z,96.39
2023-01-01T21:26:53.733Z,95.76
2023-01-01T21:29:21.489Z,96.09
2023-01-01T21:31:51.258Z,96.13
2023-01-01T21:34:24.072Z,95.50
2023-01-01T21:36:51.152Z,95.19
2023-01-01T21:39:22.051Z,94.80
2023-01-01T21:41:48.732Z,94.71
2023-01-01T21:44:15.830Z,94.95
2023-01-01T21:46:47.252Z,94.93
2023-01-01T21:49:28.265Z,94.87
2023-01-01T21:51:56.981Z,94.27
2023-01-01T21:54:30.701Z,93.97
2023-01-01T21:56:58.865Z,94.84
2023-01-01T21:59:28.387Z,95.08
2023-01-01T22:01:55.297Z,94.98
2023-01-01T22:04:22.979Z,95.08
2023-01-01T22:07:30.838Z,94.71
2023-01-01T22:09:56.021Z,94.76
2023-01-01T22:12:30.146Z,95.26
2023-01-01T22:14:58.314Z,95.39
2023-01-01T22:17:25.170Z,95.85
2023-01-01T22:19:53.014Z,96.37
2023-01-01T22:22:21.556Z,96.50
2023-01-01T22:24:58.982Z,96.56
2023-01-01T22:27:27.833Z,96.17
2023-01-01T22:29:55.580Z,95.97
2023-01-01T22:32:28.174Z,96.00
2023-01-01T22:35:13.543Z,95.81
2023-01-01T22:37:41.249Z,95.73
2023-01-01T22:40:16.947Z,95.44
2023-01-01T22:42:49.853Z,95.56
2023-01-01T22:45:17.172Z,95.56
2023-01-01T22:47:46.750Z,95.73
2023-01-01T22:50:21.605Z,95.47
2023-01-01T22:52:48.355Z,95.50
2023-01-01T22:55:15.324Z,95.06
2023-01-01T22:57:42.005Z,94.66
2023-01-01T23:00:09.452Z,94.69
2023-01-01T23:02:46.130Z,95.04
2023-01-01T23:05:12.808Z,95.03
2023-01-01T23:07:42.135Z,95.37
2023-01-01T23:10:10.401Z,95.35
2023-01-01T23:12:37.101Z,94.66
2023-01-01T23:15:22.735Z,94.66
2023-01-01T23:17:49.361Z,94.33
2023-01-01T23:20:16.009Z,94.64
2023-01-01T23:22:45.987Z,94.76
2023-01-01T23:25:15.180Z,94.59
2023-01-01T23:27:42.462Z,94.62
2023-01-01T23:30:09.273Z,94.96
2023-01-01T23:32:45.520Z,95.11
2023-01-01T23:35:12.326Z,95.14
2023-01-01T23:37:39.309Z,94.39
2023-01-01T23:40:06.437Z,94.39
2023-01-01T23:42:36.737Z,94.98
2023-01-01T23:45:03.594Z,95.01
2023-01-01T23:47:30.207Z,95.19
2023-01-01T23:49:56.945Z,96.16
2023-01-01T23:52:23.699Z,96.45
2023-01-01T23:54:50.339Z,96.15
2023-01-01T23:57:17.001Z,95.71
2023-01-01T23:59:43.661Z,95.50
